createdAt,value
2023-06-15T00:00:58.618Z,16.18
2023-06-15T00:03:27.094Z,16.08
2023-06-15T00:05:54.652Z,16.27
2023-06-15T00:08:21.928Z,16.16
2023-06-15T00:10:49.387Z,15.90
2023-06-15T00:13:17.293Z,15.88
2023-06-15T00:15:44.420Z,15.77
2023-06-15T00:18:13.164Z,15.71
2023-06-15T00:20:40.709Z,15.35
2023-06-15T00:23:09.880Z,15.31
2023-06-15T00:25:38.089Z,15.25
2023-06-15T00:28:05.546Z,15.40
2023-06-15T00:30:32.575Z,15.39
2023-06-15T00:32:59.926Z,15.17
2023-06-15T00:35:27.133Z,15.38
2023-06-15T00:37:54.138Z,15.49
2023-06-15T00:40:21.153Z,15.54
2023-06-15T00:42:48.184Z,15.43
2023-06-15T00:45:15.387Z,15.61
2023-06-15T00:47:44.786Z,15.59
2023-06-15T00:50:19.317Z,15.67
2023-06-15T00:52:49.956Z,15.65
2023-06-15T00:55:17.630Z,15.71
2023-06-15T00:57:50.297Z,15.73
2023-06-15T01:00:19.492Z,15.82
2023-06-15T01:02:50.374Z,15.83
2023-06-15T01:05:19.086Z,15.67
2023-06-15T01:07:48.671Z,15.50
2023-06-15T01:10:17.994Z,15.63
2023-06-15T01:12:46.888Z,15.61
2023-06-15T01:15:15.428Z,15.45
2023-06-15T01:17:47.491Z,15.45
2023-06-15T01:20:33.673Z,15.07
2023-06-15T01:23:33.271Z,15.26
2023-06-15T01:26:09.235Z,15.23
2023-06-15T01:28:42.101Z,15.29
2023-06-15T01:31:10.694Z,15.08
2023-06-15T01:33:46.965Z,15.01
2023-06-15T01:36:14.944Z,15.03
2023-06-15T01:38:43.954Z,15.03
2023-06-15T01:41:12.597Z,15.01
2023-06-15T01:43:41.196Z,14.99
2023-06-15T01:46:08.932Z,14.93
2023-06-15T01:48:36.119Z,14.52
2023-06-15T01:51:04.132Z,14.80
2023-06-15T01:53:32.151Z,14.99
2023-06-15T01:56:03.152Z,14.99
2023-06-15T01:58:30.153Z,15.03
2023-06-15T02:00:57.242Z,14.89
2023-06-15T02:03:24.354Z,15.05
2023-06-15T02:05:51.533Z,15.11
2023-06-15T02:08:18.578Z,15.04
2023-06-15T02:10:45.716Z,15.12
2023-06-15T02:13:13.674Z,14.71
2023-06-15T02:15:41.023Z,14.73
2023-06-15T02:18:16.002Z,14.77
2023-06-15T02:20:44.429Z,14.96
2023-06-15T02:23:12.214Z,14.90
2023-06-15T02:25:40.133Z,14.85
2023-06-15T02:28:07.146Z,14.62
2023-06-15T02:30:34.067Z,14.70
2023-06-15T02:33:02.276Z,14.85
2023-06-15T02:35:29.920Z,14.99
2023-06-15T02:37:56.856Z,14.95
2023-06-15T02:40:24.046Z,14.80
2023-06-15T02:42:52.058Z,14.81
2023-06-15T02:45:19.773Z,14.68
2023-06-15T02:47:48.388Z,14.79
2023-06-15T02:50:15.794Z,14.74
2023-06-15T02:52:46.348Z,14.56
2023-06-15T02:55:14.612Z,14.45
2023-06-15T02:57:42.729Z,14.68
2023-06-15T03:00:13.785Z,14.91
2023-06-15T03:02:44.291Z,14.71
2023-06-15T03:05:12.209Z,14.67
2023-06-15T03:07:41.792Z,14.76
2023-06-15T03:10:09.368Z,14.76
2023-06-15T03:12:36.470Z,14.71
2023-06-15T03:15:03.892Z,14.50
2023-06-15T03:17:34.059Z,14.66
2023-06-15T03:20:01.473Z,14.30
2023-06-15T03:22:28.926Z,14.45
2023-06-15T03:24:56.861Z,14.36
2023-06-15T03:27:23.945Z,14.44
2023-06-15T03:29:52.797Z,14.38
2023-06-15T03:32:19.893Z,14.51
2023-06-15T03:34:47.779Z,14.50
2023-06-15T03:37:15.210Z,14.61
2023-06-15T03:39:42.179Z,14.65
2023-06-15T03:42:09.252Z,14.75
2023-06-15T03:44:36.302Z,14.99
2023-06-15T03:47:03.393Z,14.94
2023-06-15T03:49:30.409Z,15.08
2023-06-15T03:51:57.311Z,15.23
2023-06-15T03:54:24.277Z,15.10
2023-06-15T03:56:51.581Z,15.05
2023-06-15T03:59:18.523Z,15.05
2023-06-15T04:01:45.785Z,15.05
2023-06-15T04:04:16.058Z,15.21
2023-06-15T04:06:47.764Z,15.40
2023-06-15T04:09:15.738Z,15.54
2023-06-15T04:11:43.105Z,15.36
2023-06-15T04:14:10.142Z,15.22
2023-06-15T04:16:37.218Z,15.38
2023-06-15T04:19:04.268Z,15.35
2023-06-15T04:21:32.161Z,15.29
2023-06-15T04:23:59.330Z,15.36
2023-06-15T04:26:27.562Z,15.18
2023-06-15T04:28:54.527Z,15.12
2023-06-15T04:31:25.886Z,15.00
2023-06-15T04:34:00.486Z,14.95
2023-06-15T04:36:28.809Z,14.97
2023-06-15T04:38:57.919Z,15.17
2023-06-15T04:41:25.661Z,15.34
2023-06-15T04:43:52.715Z,15.26
2023-06-15T04:46:20.048Z,15.42
2023-06-15T04:48:48.494Z,15.55
2023-06-15T04:51:16.386Z,15.71
2023-06-15T04:53:43.807Z,15.83
2023-06-15T04:56:14.874Z,15.94
2023-06-15T04:58:42.100Z,16.33
2023-06-15T05:01:09.253Z,16.54
2023-06-15T05:03:36.470Z,16.71
2023-06-15T05:06:03.562Z,16.75
2023-06-15T05:08:30.525Z,16.57
2023-06-15T05:10:58.217Z,16.73
2023-06-15T05:13:25.600Z,16.76
2023-06-15T05:15:55.844Z,16.91
2023-06-15T05:18:23.991Z,17.12
2023-06-15T05:20:51.367Z,17.24
2023-06-15T05:23:21.582Z,17.26
2023-06-15T05:25:49.445Z,17.25
2023-06-15T05:28:18.735Z,17.37
2023-06-15T05:30:46.240Z,17.68
2023-06-15T05:33:13.195Z,17.68
2023-06-15T05:35:40.213Z,17.83
2023-06-15T05:38:07.157Z,17.85
2023-06-15T05:40:34.235Z,17.98
2023-06-15T05:43:01.207Z,17.95
2023-06-15T05:45:28.943Z,18.15
2023-06-15T05:47:55.960Z,18.32
2023-06-15T05:50:24.116Z,18.54
2023-06-15T05:52:51.100Z,18.31
2023-06-15T05:55:18.837Z,18.30
2023-06-15T05:57:46.156Z,18.57
2023-06-15T06:00:14.125Z,18.54
2023-06-15T06:02:42.369Z,18.47
2023-06-15T06:05:09.607Z,18.66
2023-06-15T06:07:36.543Z,18.93
2023-06-15T06:10:04.264Z,18.92
2023-06-15T06:12:31.279Z,19.09
2023-06-15T06:14:58.253Z,19.36
2023-06-15T06:17:46.009Z,19.35
2023-06-15T06:20:12.997Z,19.54
2023-06-15T06:22:39.948Z,19.84
2023-06-15T06:25:07.643Z,19.82
2023-06-15T06:27:34.670Z,20.24
2023-06-15T06:30:02.450Z,19.81
2023-06-15T06:32:29.446Z,19.90
2023-06-15T06:34:56.411Z,20.04
2023-06-15T06:37:25.772Z,20.05
2023-06-15T06:39:52.826Z,20.00
2023-06-15T06:42:19.780Z,20.33
2023-06-15T06:44:46.707Z,20.58
2023-06-15T06:47:13.841Z,20.75
2023-06-15T06:49:41.262Z,20.81
2023-06-15T06:52:08.555Z,20.85
2023-06-15T06:54:35.697Z,20.62
2023-06-15T06:57:04.449Z,20.66
2023-06-15T06:59:43.294Z,20.95
2023-06-15T07:02:12.052Z,20.92
2023-06-15T07:04:39.082Z,20.84
2023-06-15T07:07:06.489Z,21.27
2023-06-15T07:09:33.587Z,21.45
2023-06-15T07:12:01.529Z,21.86
2023-06-15T07:14:28.670Z,21.57
2023-06-15T07:16:55.738Z,21.42
2023-06-15T07:19:22.707Z,21.47
2023-06-15T07:21:49.700Z,21.15
2023-06-15T07:24:16.866Z,20.98
2023-06-15T07:26:43.838Z,20.86
2023-06-15T07:29:10.752Z,21.27
2023-06-15T07:31:37.887Z,21.12
2023-06-15T07:34:05.151Z,21.32
2023-06-15T07:36:32.147Z,21.63
2023-06-15T07:38:59.237Z,21.37
2023-06-15T07:41:26.214Z,21.65
2023-06-15T07:43:53.212Z,21.50
2023-06-15T07:46:20.219Z,21.85
2023-06-15T07:48:47.136Z,21.69
2023-06-15T07:51:21.172Z,22.31
2023-06-15T07:53:59.731Z,22.06
2023-06-15T07:56:26.759Z,22.03
2023-06-15T07:58:53.901Z,22.23
2023-06-15T08:01:21.388Z,22.29
2023-06-15T08:03:48.364Z,22.16
2023-06-15T08:06:15.410Z,22.50
2023-06-15T08:08:42.935Z,22.41
2023-06-15T08:11:10.664Z,22.40
2023-06-15T08:13:39.104Z,22.28
2023-06-15T08:16:07.503Z,22.51
2023-06-15T08:18:34.878Z,22.57
2023-06-15T08:21:02.070Z,22.41
2023-06-15T08:23:29.172Z,22.52
2023-06-15T08:25:56.162Z,22.87
2023-06-15T08:28:23.579Z,23.27
2023-06-15T08:30:50.543Z,23.58
2023-06-15T08:33:19.652Z,23.67
2023-06-15T08:35:46.850Z,23.67
2023-06-15T08:38:14.010Z,23.66
2023-06-15T08:40:41.113Z,24.03
2023-06-15T08:43:09.629Z,23.88
2023-06-15T08:45:49.941Z,23.84
2023-06-15T08:48:18.108Z,23.89
2023-06-15T08:50:47.492Z,23.90
2023-06-15T08:53:16.172Z,24.07
2023-06-15T08:55:43.849Z,23.98
2023-06-15T08:58:11.381Z,24.38
2023-06-15T09:00:38.378Z,25.09
2023-06-15T09:03:10.443Z,24.64
2023-06-15T09:05:37.750Z,25.01
2023-06-15T09:08:06.026Z,24.67
2023-06-15T09:10:38.300Z,24.80
2023-06-15T09:13:06.036Z,24.32
2023-06-15T09:15:33.427Z,24.47
2023-06-15T09:18:02.536Z,24.87
2023-06-15T09:20:39.606Z,24.74
2023-06-15T09:23:11.957Z,24.48
2023-06-15T09:25:39.383Z,25.18
2023-06-15T09:28:08.104Z,24.76
2023-06-15T09:30:41.548Z,24.64
2023-06-15T09:33:17.812Z,25.10
2023-06-15T09:36:08.393Z,25.21
2023-06-15T09:38:46.664Z,25.53
2023-06-15T09:41:15.300Z,25.49
2023-06-15T09:43:42.535Z,25.32
2023-06-15T09:46:15.176Z,25.44
2023-06-15T09:48:44.890Z,25.05
2023-06-15T09:51:12.093Z,25.56
2023-06-15T09:53:41.081Z,25.35
2023-06-15T09:56:25.217Z,25.62
2023-06-15T09:58:58.596Z,26.08
2023-06-15T10:01:27.909Z,25.97
2023-06-15T10:03:59.209Z,26.10
2023-06-15T10:06:27.900Z,26.50
2023-06-15T10:09:01.454Z,26.17
2023-06-15T10:11:29.192Z,26.38
2023-06-15T10:14:08.949Z,26.19
2023-06-15T10:16:38.120Z,26.04
2023-06-15T10:19:07.113Z,26.88
2023-06-15T10:21:39.535Z,26.86
2023-06-15T10:24:15.807Z,26.30
2023-06-15T10:26:44.693Z,26.41
2023-06-15T10:29:21.387Z,26.36
2023-06-15T10:32:03.558Z,26.88
2023-06-15T10:34:46.324Z,26.99
2023-06-15T10:37:32.876Z,27.09
2023-06-15T10:40:15.317Z,27.30
2023-06-15T10:42:48.845Z,27.36
2023-06-15T10:45:35.275Z,27.33
2023-06-15T10:48:04.483Z,27.27
2023-06-15T10:50:49.441Z,27.05
2023-06-15T10:53:28.400Z,27.73
2023-06-15T10:55:57.818Z,28.23
2023-06-15T10:58:28.705Z,28.16
2023-06-15T11:01:10.250Z,28.43
2023-06-15T11:03:42.400Z,28.56
2023-06-15T11:06:19.684Z,28.03
2023-06-15T11:08:54.909Z,28.68
2023-06-15T11:11:35.759Z,28.46
2023-06-15T11:14:07.094Z,27.95
2023-06-15T11:16:38.879Z,27.26
2023-06-15T11:19:12.302Z,26.99
2023-06-15T11:21:43.212Z,27.56
2023-06-15T11:24:15.178Z,27.71
2023-06-15T11:26:42.986Z,27.62
2023-06-15T11:29:14.385Z,27.64
2023-06-15T11:31:42.902Z,28.36
2023-06-15T11:34:13.085Z,28.41
2023-06-15T11:36:40.054Z,27.98
2023-06-15T11:39:07.256Z,28.24
2023-06-15T11:41:34.242Z,28.02
2023-06-15T11:44:01.417Z,27.85
2023-06-15T11:46:28.443Z,28.58
2023-06-15T11:48:57.805Z,28.44
2023-06-15T11:51:29.106Z,29.05
2023-06-15T11:53:56.095Z,28.96
2023-06-15T11:56:24.222Z,28.13
2023-06-15T11:58:51.479Z,28.22
2023-06-15T12:01:19.802Z,27.98
2023-06-15T12:06:22.547Z,29.47
2023-06-15T12:08:53.431Z,29.41
2023-06-15T12:11:24.782Z,29.24
2023-06-15T12:13:52.423Z,29.65
2023-06-15T12:16:19.986Z,29.22
2023-06-15T12:18:59.640Z,28.92
2023-06-15T12:21:33.657Z,29.24
2023-06-15T12:24:01.965Z,29.27
2023-06-15T12:26:34.022Z,29.92
2023-06-15T12:29:14.432Z,30.35
2023-06-15T12:31:42.388Z,29.14
2023-06-15T12:34:12.796Z,28.62
2023-06-15T12:36:41.468Z,28.35
2023-06-15T12:39:13.589Z,28.32
2023-06-15T12:41:42.880Z,28.18
2023-06-15T12:44:11.088Z,28.15
2023-06-15T12:46:42.289Z,28.89
2023-06-15T12:49:11.636Z,29.76
2023-06-15T12:51:39.021Z,30.19
2023-06-15T12:54:06.896Z,28.74
2023-06-15T12:56:35.487Z,28.18
2023-06-15T12:59:04.432Z,29.07
2023-06-15T13:01:32.767Z,29.90
2023-06-15T13:04:00.015Z,29.10
2023-06-15T13:06:28.048Z,28.67
2023-06-15T13:08:55.097Z,28.38
2023-06-15T13:11:22.192Z,28.00
2023-06-15T13:13:49.252Z,27.14
2023-06-15T13:16:16.211Z,27.61
2023-06-15T13:18:43.359Z,28.71
2023-06-15T13:21:10.726Z,29.30
2023-06-15T13:23:37.822Z,28.71
2023-06-15T13:26:04.745Z,28.87
2023-06-15T13:28:31.964Z,29.39
2023-06-15T13:30:59.175Z,29.67
2023-06-15T13:33:26.633Z,29.72
2023-06-15T13:35:55.721Z,29.73
2023-06-15T13:38:22.684Z,28.71
2023-06-15T13:40:51.983Z,28.43
2023-06-15T13:43:18.969Z,28.80
2023-06-15T13:45:45.949Z,28.72
2023-06-15T13:48:12.948Z,27.96
2023-06-15T13:50:39.939Z,28.00
2023-06-15T13:53:06.964Z,28.70
2023-06-15T13:55:33.985Z,29.30
2023-06-15T13:58:01.606Z,29.17
2023-06-15T14:00:29.597Z,29.84
2023-06-15T14:02:56.865Z,29.83
2023-06-15T14:05:23.962Z,29.29
2023-06-15T14:07:51.455Z,29.54
2023-06-15T14:10:18.865Z,28.32
2023-06-15T14:12:46.253Z,29.19
2023-06-15T14:15:13.345Z,29.32
2023-06-15T14:17:41.557Z,29.14
2023-06-15T14:20:10.070Z,29.23
2023-06-15T14:22:37.216Z,29.01
2023-06-15T14:25:04.749Z,28.67
2023-06-15T14:27:31.741Z,28.02
2023-06-15T14:29:58.764Z,28.49
2023-06-15T14:32:27.420Z,28.92
2023-06-15T14:34:54.734Z,28.35
2023-06-15T14:37:22.801Z,27.72
2023-06-15T14:39:49.771Z,26.89
2023-06-15T14:42:21.035Z,27.00
2023-06-15T14:44:48.206Z,26.77
2023-06-15T14:47:15.853Z,26.92
2023-06-15T14:49:42.799Z,27.06
2023-06-15T14:52:10.298Z,27.39
2023-06-15T14:54:38.981Z,27.75
2023-06-15T14:57:06.046Z,28.53
2023-06-15T14:59:32.984Z,28.96
2023-06-15T15:02:02.055Z,29.06
2023-06-15T15:04:29.051Z,27.61
2023-06-15T15:06:56.022Z,27.45
2023-06-15T15:09:23.038Z,26.90
2023-06-15T15:11:49.953Z,26.91
2023-06-15T15:14:17.971Z,27.16
2023-06-15T15:16:44.969Z,27.67
2023-06-15T15:19:12.324Z,28.32
2023-06-15T15:21:39.273Z,28.39
2023-06-15T15:24:06.678Z,29.01
2023-06-15T15:26:33.890Z,28.59
2023-06-15T15:29:00.971Z,28.91
2023-06-15T15:31:28.853Z,28.52
2023-06-15T15:33:55.799Z,28.21
2023-06-15T15:36:22.808Z,27.81
2023-06-15T15:38:49.901Z,27.40
2023-06-15T15:41:17.464Z,27.95
2023-06-15T15:43:45.536Z,27.52
2023-06-15T15:46:12.589Z,27.17
2023-06-15T15:48:39.631Z,27.48
2023-06-15T15:51:07.651Z,27.37
2023-06-15T15:53:36.332Z,27.63
2023-06-15T15:56:04.509Z,27.90
2023-06-15T15:58:32.143Z,28.05
2023-06-15T16:00:59.081Z,27.50
2023-06-15T16:03:26.094Z,27.18
2023-06-15T16:05:53.329Z,27.01
2023-06-15T16:08:20.414Z,27.47
2023-06-15T16:10:49.522Z,27.81
2023-06-15T16:13:16.618Z,27.73
2023-06-15T16:15:46.638Z,27.37
2023-06-15T16:18:14.925Z,27.60
2023-06-15T16:20:41.910Z,27.71
2023-06-15T16:23:08.846Z,28.00
2023-06-15T16:25:36.017Z,27.40
2023-06-15T16:28:04.164Z,27.23
2023-06-15T16:30:31.213Z,27.23
2023-06-15T16:32:58.193Z,27.16
2023-06-15T16:35:25.325Z,27.55
2023-06-15T16:37:52.311Z,28.01
2023-06-15T16:40:19.711Z,28.67
2023-06-15T16:42:48.005Z,28.88
2023-06-15T16:45:15.041Z,28.96
2023-06-15T16:47:43.358Z,28.60
2023-06-15T16:50:11.333Z,28.91
2023-06-15T16:52:38.398Z,28.77
2023-06-15T16:55:05.916Z,27.54
2023-06-15T16:57:32.970Z,27.30
2023-06-15T17:00:00.029Z,27.78
2023-06-15T17:02:27.031Z,28.45
2023-06-15T17:04:54.466Z,28.85
2023-06-15T17:07:21.701Z,28.44
2023-06-15T17:09:48.839Z,27.93
2023-06-15T17:12:15.870Z,27.68
2023-06-15T17:14:44.898Z,27.62
2023-06-15T17:17:11.847Z,27.72
2023-06-15T17:19:39.099Z,27.46
2023-06-15T17:22:07.651Z,26.60
2023-06-15T17:24:35.283Z,26.41
2023-06-15T17:27:04.052Z,26.09
2023-06-15T17:29:32.262Z,25.90
2023-06-15T17:31:59.432Z,26.78
2023-06-15T17:34:26.367Z,27.41
2023-06-15T17:36:53.376Z,27.46
2023-06-15T17:39:21.978Z,27.48
2023-06-15T17:41:48.954Z,27.79
2023-06-15T17:44:17.002Z,28.30
2023-06-15T17:46:44.003Z,28.57
2023-06-15T17:49:13.262Z,28.56
2023-06-15T17:51:40.765Z,28.74
2023-06-15T17:54:07.713Z,29.02
2023-06-15T17:56:35.041Z,28.65
2023-06-15T17:59:01.996Z,29.25
2023-06-15T18:01:30.158Z,28.77
2023-06-15T18:03:57.917Z,28.75
2023-06-15T18:06:26.180Z,28.43
2023-06-15T18:08:54.213Z,28.57
2023-06-15T18:11:21.225Z,28.17
2023-06-15T18:13:51.502Z,28.39
2023-06-15T18:16:19.279Z,27.70
2023-06-15T18:18:46.450Z,27.86
2023-06-15T18:21:13.420Z,27.88
2023-06-15T18:23:41.548Z,27.72
2023-06-15T18:26:10.077Z,27.60
2023-06-15T18:28:38.264Z,27.48
2023-06-15T18:31:05.379Z,27.46
2023-06-15T18:33:32.424Z,26.81
2023-06-15T18:36:00.134Z,25.89
2023-06-15T18:38:29.584Z,25.51
2023-06-15T18:40:56.872Z,24.96
2023-06-15T18:43:23.866Z,24.47
2023-06-15T18:45:50.918Z,24.10
2023-06-15T18:48:18.261Z,23.74
2023-06-15T18:50:45.633Z,23.25
2023-06-15T18:53:12.600Z,23.07
2023-06-15T18:55:39.537Z,22.96
2023-06-15T18:58:08.035Z,22.80
2023-06-15T19:00:35.057Z,22.69
2023-06-15T19:03:02.161Z,22.61
2023-06-15T19:05:29.290Z,22.61
2023-06-15T19:07:56.240Z,22.68
2023-06-15T19:10:24.181Z,22.94
2023-06-15T19:12:51.275Z,22.75
2023-06-15T19:15:18.622Z,22.75
2023-06-15T19:17:45.808Z,22.78
2023-06-15T19:20:13.044Z,22.99
2023-06-15T19:22:40.047Z,22.83
2023-06-15T19:25:07.784Z,22.61
2023-06-15T19:27:34.747Z,22.50
2023-06-15T19:30:02.046Z,22.56
2023-06-15T19:32:30.234Z,22.67
2023-06-15T19:34:57.324Z,22.86
2023-06-15T19:37:24.378Z,22.77
2023-06-15T19:39:51.424Z,22.75
2023-06-15T19:42:18.506Z,22.35
2023-06-15T19:44:45.978Z,22.35
2023-06-15T19:47:13.221Z,21.94
2023-06-15T19:49:40.246Z,21.78
2023-06-15T19:52:08.362Z,21.53
2023-06-15T19:54:35.790Z,21.33
2023-06-15T19:57:03.032Z,21.22
2023-06-15T19:59:30.122Z,21.13
2023-06-15T20:01:57.164Z,21.13
2023-06-15T20:04:24.298Z,20.86
2023-06-15T20:06:51.317Z,20.49
2023-06-15T20:09:18.295Z,19.99
2023-06-15T20:11:46.270Z,19.84
2023-06-15T20:14:14.149Z,19.68
2023-06-15T20:16:41.580Z,19.52
2023-06-15T20:19:09.224Z,19.41
2023-06-15T20:21:36.168Z,19.62
2023-06-15T20:24:03.712Z,19.61
2023-06-15T20:26:32.337Z,19.79
2023-06-15T20:28:59.710Z,19.97
2023-06-15T20:31:26.777Z,20.06
2023-06-15T20:33:55.265Z,20.30
2023-06-15T20:36:22.623Z,20.57
2023-06-15T20:38:49.798Z,20.53
2023-06-15T20:41:16.817Z,20.35
2023-06-15T20:43:44.116Z,20.24
2023-06-15T20:46:13.800Z,20.24
2023-06-15T20:48:41.112Z,20.11
2023-06-15T20:51:08.223Z,20.06
2023-06-15T20:53:37.187Z,19.89
2023-06-15T20:56:06.301Z,19.90
2023-06-15T20:58:36.210Z,19.92
2023-06-15T21:01:05.613Z,19.95
2023-06-15T21:03:33.298Z,19.87
2023-06-15T21:06:03.608Z,19.77
2023-06-15T21:08:34.248Z,19.79
2023-06-15T21:11:03.426Z,19.77
2023-06-15T21:13:35.732Z,19.46
2023-06-15T21:16:05.956Z,19.38
2023-06-15T21:18:35.375Z,19.61
2023-06-15T21:21:02.737Z,19.44
2023-06-15T21:23:31.078Z,19.32
2023-06-15T21:25:58.238Z,19.33
2023-06-15T21:28:25.311Z,19.24
2023-06-15T21:30:52.268Z,19.32
2023-06-15T21:33:19.293Z,19.22
2023-06-15T21:35:46.492Z,19.31
2023-06-15T21:38:14.794Z,19.36
2023-06-15T21:40:42.022Z,19.40
2023-06-15T21:43:09.286Z,19.33
2023-06-15T21:45:36.280Z,19.58
2023-06-15T21:48:04.458Z,19.35
2023-06-15T21:50:31.630Z,19.30
2023-06-15T21:52:59.517Z,19.01
2023-06-15T21:55:30.931Z,18.75
2023-06-15T21:57:58.310Z,18.64
2023-06-15T22:00:25.917Z,18.54
2023-06-15T22:02:53.041Z,18.14
2023-06-15T22:05:22.833Z,18.02
2023-06-15T22:07:51.489Z,17.64
2023-06-15T22:10:18.939Z,17.55
2023-06-15T22:12:46.326Z,17.35
2023-06-15T22:15:13.272Z,17.31
2023-06-15T22:17:40.508Z,17.27
2023-06-15T22:20:09.629Z,17.32
2023-06-15T22:22:37.061Z,17.37
2023-06-15T22:25:04.649Z,17.19
2023-06-15T22:27:32.245Z,17.19
2023-06-15T22:29:59.225Z,17.30
2023-06-15T22:32:26.192Z,17.39
2023-06-15T22:34:53.307Z,17.62
2023-06-15T22:37:22.910Z,17.52
2023-06-15T22:39:49.853Z,17.81
2023-06-15T22:42:16.909Z,17.80
2023-06-15T22:44:43.945Z,17.57
2023-06-15T22:47:11.421Z,17.63
2023-06-15T22:49:43.564Z,17.80
2023-06-15T22:52:11.888Z,17.76
2023-06-15T22:54:50.127Z,17.80
2023-06-15T22:57:17.825Z,17.62
2023-06-15T22:59:44.961Z,17.38
2023-06-15T23:02:12.082Z,17.48
2023-06-15T23:04:39.143Z,17.41
2023-06-15T23:07:06.163Z,17.58
2023-06-15T23:09:36.429Z,17.67
2023-06-15T23:12:05.094Z,17.51
2023-06-15T23:14:33.119Z,17.55
2023-06-15T23:17:02.920Z,17.54
2023-06-15T23:19:31.548Z,17.55
2023-06-15T23:21:59.426Z,17.59
2023-06-15T23:24:26.940Z,17.68
2023-06-15T23:26:54.826Z,17.71
2023-06-15T23:29:25.740Z,17.79
2023-06-15T23:31:53.440Z,17.82
2023-06-15T23:34:21.181Z,17.88
2023-06-15T23:36:48.119Z,17.96
2023-06-15T23:39:15.349Z,17.91
2023-06-15T23:41:42.630Z,17.87
2023-06-15T23:44:09.573Z,17.88
2023-06-15T23:46:36.542Z,17.87
2023-06-15T23:49:04.015Z,17.88
2023-06-15T23:51:30.926Z,17.78
2023-06-15T23:53:57.877Z,17.77
2023-06-15T23:56:24.825Z,17.78
2023-06-15T23:58:51.834Z,17.74
